createdAt,value
2023-05-07T00:03:59.139Z,100402.31
2023-05-07T00:08:11.881Z,100407.84
2023-05-07T00:12:24.460Z,100406.56
2023-05-07T00:16:36.984Z,100404.75
2023-05-07T00:20:49.558Z,100404.06
2023-05-07T00:25:02.138Z,100413.19
2023-05-07T00:29:14.488Z,100414.16
2023-05-07T00:33:28.131Z,100413.28
2023-05-07T00:37:40.682Z,100414.84
2023-05-07T00:41:53.761Z,100417.34
2023-05-07T00:46:06.588Z,100409.22
2023-05-07T00:50:20.435Z,100407.47
2023-05-07T00:54:33.609Z,100413.91
2023-05-07T00:58:46.124Z,100413.19
2023-05-07T01:02:59.289Z,100413.38
2023-05-07T01:07:12.368Z,100411.59
2023-05-07T01:11:25.283Z,100417.03
2023-05-07T01:15:39.107Z,100407.34
2023-05-07T01:19:52.145Z,100402.16
2023-05-07T01:24:05.984Z,100400.66
2023-05-07T01:28:19.008Z,100403.81
2023-05-07T01:32:45.053Z,100395.28
2023-05-07T01:36:59.292Z,100399.00
2023-05-07T01:41:13.022Z,100406.25
2023-05-07T01:45:26.944Z,100419.22
2023-05-07T01:49:39.776Z,100417.06
2023-05-07T01:53:54.711Z,100414.31
2023-05-07T01:58:07.073Z,100418.22
2023-05-07T02:02:19.494Z,100416.03
2023-05-07T02:06:32.385Z,100405.22
2023-05-07T02:10:51.211Z,100406.22
2023-05-07T02:15:03.984Z,100408.03
2023-05-07T02:19:16.527Z,100417.44
2023-05-07T02:23:29.003Z,100416.00
2023-05-07T02:27:41.566Z,100416.22
2023-05-07T02:31:55.356Z,100413.59
2023-05-07T02:36:11.678Z,100425.06
2023-05-07T02:40:50.186Z,100427.78
2023-05-07T02:45:02.906Z,100427.13
2023-05-07T02:49:17.120Z,100429.09
2023-05-07T02:53:30.758Z,100430.84
2023-05-07T02:57:43.258Z,100433.50
2023-05-07T03:01:55.661Z,100434.84
2023-05-07T03:06:08.365Z,100438.38
2023-05-07T03:10:23.109Z,100438.38
2023-05-07T03:14:35.529Z,100437.22
2023-05-07T03:18:48.066Z,100434.50
2023-05-07T03:23:00.612Z,100448.38
2023-05-07T03:27:13.022Z,100448.59
2023-05-07T03:31:26.223Z,100446.94
2023-05-07T03:35:39.019Z,100449.38
2023-05-07T03:39:51.453Z,100451.22
2023-05-07T03:44:04.842Z,100452.50
2023-05-07T03:48:17.234Z,100454.41
2023-05-07T03:52:29.840Z,100450.72
2023-05-07T03:56:45.978Z,100452.53
2023-05-07T04:00:58.574Z,100460.47
2023-05-07T04:05:15.981Z,100462.91
2023-05-07T04:09:30.027Z,100464.50
2023-05-07T04:13:43.490Z,100461.13
2023-05-07T04:17:56.178Z,100470.72
2023-05-07T04:22:11.634Z,100471.31
2023-05-07T04:26:24.569Z,100490.78
2023-05-07T04:30:37.181Z,100490.53
2023-05-07T04:34:52.339Z,100491.88
2023-05-07T04:39:05.722Z,100494.84
2023-05-07T04:43:18.159Z,100502.63
2023-05-07T04:47:35.204Z,100500.53
2023-05-07T04:51:48.606Z,100499.44
2023-05-07T04:56:05.402Z,100499.78
2023-05-07T05:00:24.643Z,100511.44
2023-05-07T05:04:38.672Z,100508.56
2023-05-07T05:08:52.277Z,100517.88
2023-05-07T05:13:05.000Z,100520.25
2023-05-07T05:17:17.882Z,100517.31
2023-05-07T05:21:30.288Z,100529.81
2023-05-07T05:25:48.484Z,100524.69
2023-05-07T05:30:01.781Z,100524.66
2023-05-07T05:34:16.361Z,100532.50
2023-05-07T05:38:28.923Z,100532.84
2023-05-07T05:42:41.795Z,100533.19
2023-05-07T05:46:56.832Z,100537.88
2023-05-07T05:51:09.513Z,100540.19
2023-05-07T05:55:23.127Z,100542.19
2023-05-07T05:59:35.693Z,100540.94
2023-05-07T06:03:48.258Z,100546.50
2023-05-07T06:08:01.573Z,100539.63
2023-05-07T06:12:18.089Z,100546.72
2023-05-07T06:16:33.610Z,100558.81
2023-05-07T06:20:47.435Z,100566.09
2023-05-07T06:25:09.468Z,100556.13
2023-05-07T06:29:23.047Z,100557.22
2023-05-07T06:33:36.300Z,100557.81
2023-05-07T06:37:49.073Z,100551.00
2023-05-07T06:42:07.162Z,100554.03
2023-05-07T06:46:20.818Z,100559.13
2023-05-07T06:50:33.375Z,100564.53
2023-05-07T06:54:46.751Z,100558.94
2023-05-07T06:59:04.052Z,100564.28
2023-05-07T07:03:21.499Z,100557.84
2023-05-07T07:07:34.628Z,100560.59
2023-05-07T07:11:47.078Z,100556.31
2023-05-07T07:16:01.846Z,100548.63
2023-05-07T07:20:14.987Z,100555.28
2023-05-07T07:24:30.576Z,100553.00
2023-05-07T07:28:47.324Z,100550.38
2023-05-07T07:33:04.660Z,100554.50
2023-05-07T07:37:20.707Z,100561.97
2023-05-07T07:41:33.488Z,100554.94
2023-05-07T07:45:47.329Z,100556.28
2023-05-07T07:50:00.151Z,100560.78
2023-05-07T07:54:16.814Z,100554.00
2023-05-07T07:58:29.916Z,100556.47
2023-05-07T08:02:42.661Z,100564.41
2023-05-07T08:06:57.307Z,100559.59
2023-05-07T08:11:11.012Z,100560.13
2023-05-07T08:15:23.732Z,100559.16
2023-05-07T08:19:37.071Z,100561.91
2023-05-07T08:23:53.549Z,100571.72
2023-05-07T08:28:07.194Z,100571.91
2023-05-07T08:32:23.023Z,100581.81
2023-05-07T08:36:35.716Z,100564.31
2023-05-07T08:40:48.803Z,100563.63
2023-05-07T08:45:09.702Z,100567.16
2023-05-07T08:49:23.347Z,100578.19
2023-05-07T08:53:37.516Z,100573.69
2023-05-07T08:57:51.302Z,100573.69
2023-05-07T09:02:04.136Z,100576.94
2023-05-07T09:06:18.097Z,100576.72
2023-05-07T09:10:31.497Z,100579.78
2023-05-07T09:14:44.161Z,100578.13
2023-05-07T09:18:56.874Z,100576.00
2023-05-07T09:23:09.831Z,100574.84
2023-05-07T09:27:22.829Z,100572.38
2023-05-07T09:31:39.406Z,100568.47
2023-05-07T09:35:54.219Z,100569.91
2023-05-07T09:40:09.800Z,100562.91
2023-05-07T09:44:23.310Z,100560.53
2023-05-07T09:48:40.982Z,100564.88
2023-05-07T09:52:55.292Z,100565.72
2023-05-07T09:57:10.848Z,100559.25
2023-05-07T10:01:26.827Z,100566.66
2023-05-07T10:05:40.663Z,100566.91
2023-05-07T10:09:54.012Z,100559.59
2023-05-07T10:14:19.350Z,100558.88
2023-05-07T10:18:35.402Z,100547.16
2023-05-07T10:22:58.544Z,100548.00
2023-05-07T10:27:20.322Z,100549.25
2023-05-07T10:31:40.798Z,100553.53
2023-05-07T10:36:02.132Z,100546.03
2023-05-07T10:40:16.458Z,100544.34
2023-05-07T10:44:30.685Z,100552.69
2023-05-07T10:49:05.655Z,100549.16
2023-05-07T10:53:28.717Z,100547.28
2023-05-07T10:58:33.003Z,100533.72
2023-05-07T11:03:20.847Z,100535.75
2023-05-07T11:07:58.768Z,100540.16
2023-05-07T11:12:17.401Z,100538.41
2023-05-07T11:16:38.244Z,100527.72
2023-05-07T11:21:11.438Z,100543.88
2023-05-07T11:25:34.257Z,100540.09
2023-05-07T11:29:59.780Z,100536.53
2023-05-07T11:34:13.760Z,100536.63
2023-05-07T11:38:26.909Z,100534.91
2023-05-07T11:42:41.458Z,100537.13
2023-05-07T11:46:53.819Z,100536.63
2023-05-07T11:51:10.264Z,100541.03
2023-05-07T11:55:23.954Z,100544.28
2023-05-07T11:59:51.068Z,100540.13
2023-05-07T12:04:05.713Z,100542.53
2023-05-07T12:08:19.248Z,100535.53
2023-05-07T12:12:31.657Z,100543.72
2023-05-07T12:16:44.963Z,100538.06
2023-05-07T12:20:57.765Z,100548.19
2023-05-07T12:25:10.973Z,100548.00
2023-05-07T12:29:26.703Z,100543.84
2023-05-07T12:33:39.772Z,100538.16
2023-05-07T12:37:57.277Z,100528.84
2023-05-07T12:42:09.713Z,100533.06
2023-05-07T12:46:22.418Z,100535.00
2023-05-07T12:50:35.280Z,100539.16
2023-05-07T12:54:49.315Z,100534.91
2023-05-07T12:59:01.749Z,100535.00
2023-05-07T13:03:22.955Z,100522.97
2023-05-07T13:07:35.987Z,100527.97
2023-05-07T13:11:48.365Z,100515.75
2023-05-07T13:16:01.747Z,100525.69
2023-05-07T13:20:14.282Z,100513.84
2023-05-07T13:24:26.696Z,100520.47
2023-05-07T13:28:39.146Z,100508.59
2023-05-07T13:32:53.464Z,100508.56
2023-05-07T13:37:06.192Z,100510.63
2023-05-07T13:41:18.627Z,100516.50
2023-05-07T13:45:31.485Z,100519.53
2023-05-07T13:49:43.961Z,100519.50
2023-05-07T13:53:56.486Z,100517.56
2023-05-07T13:58:09.035Z,100515.22
2023-05-07T14:02:21.517Z,100511.84
2023-05-07T14:06:34.029Z,100516.56
2023-05-07T14:10:47.291Z,100516.84
2023-05-07T14:15:00.052Z,100517.25
2023-05-07T14:19:13.504Z,100500.84
2023-05-07T14:23:28.822Z,100500.53
2023-05-07T14:27:41.218Z,100498.69
2023-05-07T14:31:53.651Z,100489.31
2023-05-07T14:36:06.213Z,100486.50
2023-05-07T14:40:18.689Z,100487.50
2023-05-07T14:44:31.685Z,100481.03
2023-05-07T14:48:46.307Z,100481.66
2023-05-07T14:52:58.682Z,100475.41
2023-05-07T14:57:14.524Z,100475.91
2023-05-07T15:01:27.250Z,100477.38
2023-05-07T15:05:39.876Z,100475.97
2023-05-07T15:09:52.580Z,100471.78
2023-05-07T15:14:05.068Z,100469.91
2023-05-07T15:18:17.584Z,100470.66
2023-05-07T15:22:30.062Z,100469.84
2023-05-07T15:26:42.537Z,100475.31
2023-05-07T15:30:56.467Z,100470.97
2023-05-07T15:35:09.578Z,100475.59
2023-05-07T15:39:24.277Z,100464.41
2023-05-07T15:43:49.639Z,100471.28
2023-05-07T15:48:02.321Z,100477.97
2023-05-07T15:52:16.007Z,100476.25
2023-05-07T15:56:28.452Z,100477.59
2023-05-07T16:00:41.776Z,100484.13
2023-05-07T16:04:54.540Z,100476.72
2023-05-07T16:09:06.993Z,100478.47
2023-05-07T16:13:20.535Z,100472.47
2023-05-07T16:17:33.146Z,100482.28
2023-05-07T16:21:45.603Z,100479.25
2023-05-07T16:25:58.054Z,100491.75
2023-05-07T16:30:11.043Z,100495.50
2023-05-07T16:34:23.573Z,100497.41
2023-05-07T16:38:36.024Z,100498.56
2023-05-07T16:42:48.423Z,100503.81
2023-05-07T16:47:00.680Z,100507.81
2023-05-07T16:51:13.063Z,100504.84
2023-05-07T16:55:25.438Z,100508.63
2023-05-07T16:59:38.014Z,100506.50
2023-05-07T17:03:51.055Z,100516.25
2023-05-07T17:08:03.674Z,100529.59
2023-05-07T17:12:16.648Z,100531.16
2023-05-07T17:16:28.979Z,100534.53
2023-05-07T17:20:43.350Z,100535.16
2023-05-07T17:24:57.103Z,100542.88
2023-05-07T17:29:10.440Z,100545.44
2023-05-07T17:33:22.797Z,100546.97
2023-05-07T17:37:35.461Z,100558.28
2023-05-07T17:41:47.922Z,100557.25
2023-05-07T17:46:00.546Z,100563.88
2023-05-07T17:50:14.274Z,100569.00
2023-05-07T17:54:27.137Z,100583.88
2023-05-07T17:58:57.384Z,100578.84
2023-05-07T18:03:11.570Z,100581.50
2023-05-07T18:07:24.142Z,100581.91
2023-05-07T18:11:37.549Z,100571.59
2023-05-07T18:15:50.035Z,100588.94
2023-05-07T18:20:11.757Z,100591.19
2023-05-07T18:24:24.300Z,100580.78
2023-05-07T18:28:36.668Z,100589.94
2023-05-07T18:32:50.339Z,100594.84
2023-05-07T18:37:02.816Z,100597.53
2023-05-07T18:41:16.985Z,100612.25
2023-05-07T18:45:29.301Z,100604.59
2023-05-07T18:49:41.817Z,100604.09
2023-05-07T18:53:54.421Z,100604.38
2023-05-07T18:58:06.919Z,100611.38
2023-05-07T19:02:19.613Z,100617.91
2023-05-07T19:06:33.678Z,100613.66
2023-05-07T19:10:46.245Z,100616.06
2023-05-07T19:14:59.194Z,100622.47
2023-05-07T19:19:11.743Z,100630.53
2023-05-07T19:23:24.228Z,100623.59
2023-05-07T19:27:40.939Z,100626.13
2023-05-07T19:31:53.405Z,100626.03
2023-05-07T19:36:05.857Z,100620.63
2023-05-07T19:40:18.398Z,100634.41
2023-05-07T19:44:30.827Z,100634.31
2023-05-07T19:48:44.143Z,100630.88
2023-05-07T19:52:56.580Z,100631.63
2023-05-07T19:57:09.348Z,100621.38
2023-05-07T20:01:22.214Z,100634.97
2023-05-07T20:05:34.759Z,100631.88
2023-05-07T20:09:47.088Z,100631.22
2023-05-07T20:13:59.476Z,100626.88
2023-05-07T20:18:11.899Z,100626.50
2023-05-07T20:22:24.371Z,100630.75
2023-05-07T20:26:37.094Z,100628.97
2023-05-07T20:30:49.790Z,100637.72
2023-05-07T20:35:05.350Z,100634.75
2023-05-07T20:39:17.929Z,100631.75
2023-05-07T20:43:30.341Z,100641.34
2023-05-07T20:47:42.873Z,100636.41
2023-05-07T20:51:55.363Z,100638.66
2023-05-07T20:56:08.832Z,100638.94
2023-05-07T21:00:21.268Z,100638.41
2023-05-07T21:04:33.724Z,100636.84
2023-05-07T21:08:46.108Z,100636.50
2023-05-07T21:12:59.346Z,100640.00
2023-05-07T21:17:11.830Z,100648.31
2023-05-07T21:21:24.072Z,100635.47
2023-05-07T21:25:39.505Z,100651.00
2023-05-07T21:29:51.874Z,100648.25
2023-05-07T21:34:04.336Z,100643.97
2023-05-07T21:38:18.978Z,100650.34
2023-05-07T21:42:31.364Z,100659.81
2023-05-07T21:46:43.874Z,100645.00
2023-05-07T21:51:07.319Z,100654.03
2023-05-07T21:55:20.184Z,100650.28
2023-05-07T21:59:34.323Z,100655.31
2023-05-07T22:03:47.005Z,100652.94
2023-05-07T22:08:02.411Z,100644.38
2023-05-07T22:12:14.799Z,100645.16
2023-05-07T22:16:30.462Z,100655.56
2023-05-07T22:20:42.870Z,100658.78
2023-05-07T22:24:55.756Z,100658.38
2023-05-07T22:29:08.201Z,100656.34
2023-05-07T22:33:20.673Z,100659.63
2023-05-07T22:37:34.218Z,100667.56
2023-05-07T22:41:46.955Z,100670.47
2023-05-07T22:46:02.632Z,100669.50
2023-05-07T22:50:15.362Z,100661.41
2023-05-07T22:54:28.213Z,100651.25
2023-05-07T22:58:40.742Z,100650.91
2023-05-07T23:02:54.499Z,100649.97
2023-05-07T23:07:07.198Z,100650.91
2023-05-07T23:11:19.687Z,100642.81
2023-05-07T23:15:34.013Z,100635.94
2023-05-07T23:19:46.653Z,100643.78
2023-05-07T23:23:59.429Z,100640.53
2023-05-07T23:28:11.975Z,100633.31
2023-05-07T23:32:24.566Z,100626.22
2023-05-07T23:36:37.049Z,100611.19
2023-05-07T23:40:49.401Z,100607.75
2023-05-07T23:45:02.210Z,100607.31
2023-05-07T23:49:14.621Z,100592.25
2023-05-07T23:53:27.172Z,100587.06
2023-05-07T23:57:39.967Z,100586.09
